Time;durP1;ratioP1;P1;durP2;ratioP2;P2;SDS_P1;SDS_P2;PMS_P1;PMS_P2;Temp;Humidity;BMP_temperature;BMP_pressure;BME280_temperature;BME280_humidity;BME280_pressure;Samples;Min_cycle;Max_cycle;Signal;HPM_P1;HPM_P2
2022/07/08 00:01:14;;;;;;;7.47;5.07;;;24.30;63.00;;;;;;4973961;28;20054;-56
2022/07/08 00:03:40;;;;;;;8.63;4.83;;;24.20;63.40;;;;;;4973946;28;20468;-56
2022/07/08 00:06:06;;;;;;;9.67;5.47;;;24.20;63.40;;;;;;4973964;28;20027;-57
2022/07/08 00:08:33;;;;;;;6.27;4.43;;;24.20;63.60;;;;;;4972439;28;20019;-57
2022/07/08 00:10:58;;;;;;;4.90;3.92;;;24.20;63.20;;;;;;4991037;28;20030;-57
2022/07/08 00:13:24;;;;;;;6.30;3.97;;;24.30;62.70;;;;;;4993285;28;20087;-56
2022/07/08 00:15:50;;;;;;;8.93;3.70;;;24.30;62.60;;;;;;4978970;28;20492;-56
2022/07/08 00:18:16;;;;;;;6.33;4.73;;;24.30;62.60;;;;;;4973689;28;20038;-56
2022/07/08 00:20:41;;;;;;;10.87;4.93;;;24.20;62.90;;;;;;4988837;28;20380;-58
2022/07/08 00:23:07;;;;;;;5.00;4.50;;;24.20;62.70;;;;;;4993104;28;20388;-55
2022/07/08 00:25:33;;;;;;;7.77;5.50;;;24.10;62.90;;;;;;4987247;28;20034;-58
2022/07/08 00:27:58;;;;;;;6.53;5.27;;;24.00;63.00;;;;;;4974921;28;20030;-55
2022/07/08 00:30:24;;;;;;;9.13;5.63;;;23.90;63.40;;;;;;4984644;28;20037;-54
2022/07/08 00:32:50;;;;;;;8.53;5.70;;;23.90;63.90;;;;;;4977110;28;20495;-56
2022/07/08 00:35:16;;;;;;;8.13;5.37;;;23.80;64.20;;;;;;4973399;28;20085;-55
2022/07/08 00:37:41;;;;;;;7.53;4.93;;;23.80;64.80;;;;;;4972471;28;20073;-56
2022/07/08 00:40:08;;;;;;;14.17;6.50;;;23.80;64.40;;;;;;4980072;28;20014;-56
2022/07/08 00:42:34;;;;;;;7.63;6.82;;;;;;;;;;4992755;28;20030;-55
2022/07/08 00:44:59;;;;;;;8.40;7.00;;;23.70;64.50;;;;;;4990972;28;20037;-54
2022/07/08 00:47:25;;;;;;;18.75;7.57;;;23.50;65.10;;;;;;4992646;28;20113;-53
2022/07/08 00:49:51;;;;;;;10.02;7.60;;;23.50;66.10;;;;;;4981753;28;20038;-52
2022/07/08 00:52:17;;;;;;;12.90;7.00;;;23.50;66.20;;;;;;4987985;28;20034;-55
2022/07/08 00:54:44;;;;;;;12.48;7.07;;;23.50;66.00;;;;;;4979145;28;20439;-56
2022/07/08 00:57:10;;;;;;;12.68;8.23;;;23.40;66.40;;;;;;4988478;28;20145;-53
2022/07/08 00:59:36;;;;;;;11.57;7.90;;;;;;;;;;4990485;28;20073;-55
2022/07/08 01:02:02;;;;;;;15.15;8.57;;;23.30;66.40;;;;;;4979407;28;20026;-55
2022/07/08 01:04:28;;;;;;;10.07;7.13;;;23.10;67.70;;;;;;4991566;28;20021;-57
2022/07/08 01:06:53;;;;;;;10.03;7.47;;;23.20;67.60;;;;;;4991969;28;20026;-57
2022/07/08 01:09:19;;;;;;;9.90;7.97;;;23.20;67.70;;;;;;4991672;28;20085;-59
2022/07/08 01:11:46;;;;;;;10.90;8.27;;;23.20;67.70;;;;;;4989125;28;20503;-55
2022/07/08 01:14:12;;;;;;;9.35;8.40;;;23.20;67.80;;;;;;4979224;28;20046;-59
2022/07/08 01:16:38;;;;;;;9.68;8.60;;;23.20;67.90;;;;;;4974081;28;20097;-58
2022/07/08 01:19:04;;;;;;;10.60;8.83;;;23.20;67.90;;;;;;4976591;28;20481;-57
2022/07/08 01:21:30;;;;;;;10.40;9.20;;;23.30;67.80;;;;;;4974042;28;20093;-52
2022/07/08 01:23:55;;;;;;;9.93;8.90;;;23.40;67.70;;;;;;4972853;28;20415;-58
2022/07/08 01:26:21;;;;;;;12.83;8.93;;;23.30;67.50;;;;;;4973709;28;20042;-61
2022/07/08 01:28:47;;;;;;;12.27;8.70;;;23.30;67.80;;;;;;4982864;28;20125;-61
2022/07/08 01:31:13;;;;;;;10.52;8.40;;;23.30;68.20;;;;;;4980070;28;20662;-57
2022/07/08 01:33:39;;;;;;;9.70;8.80;;;;;;;;;;4975622;28;20058;-58
2022/07/08 01:36:05;;;;;;;10.20;9.13;;;23.20;68.40;;;;;;4971797;28;20038;-59
2022/07/08 01:38:31;;;;;;;10.23;8.77;;;23.00;68.50;;;;;;4970511;28;20531;-59
2022/07/08 01:40:57;;;;;;;12.95;9.63;;;23.10;68.90;;;;;;4969532;28;20023;-57
2022/07/08 01:43:23;;;;;;;13.10;9.10;;;23.00;69.50;;;;;;4975212;28;20027;-58
2022/07/08 01:45:49;;;;;;;9.93;8.97;;;23.00;68.70;;;;;;4987473;28;20046;-58
2022/07/08 01:48:15;;;;;;;11.27;10.18;;;23.20;68.70;;;;;;4991098;28;20327;-57
2022/07/08 01:50:40;;;;;;;16.88;9.73;;;23.20;68.60;;;;;;4985468;28;20030;-57
2022/07/08 01:53:06;;;;;;;10.50;9.43;;;23.20;68.40;;;;;;4995823;28;20120;-57
2022/07/08 01:55:32;;;;;;;15.18;10.00;;;23.20;68.40;;;;;;4981901;28;20531;-57
2022/07/08 01:57:58;;;;;;;10.38;9.38;;;;;;;;;;4982186;28;20085;-60
2022/07/08 02:00:24;;;;;;;11.80;8.90;;;;;;;;;;4991596;28;20066;-60
2022/07/08 02:02:50;;;;;;;10.80;9.83;;;;;;;;;;4986654;28;20030;-57
2022/07/08 02:05:16;;;;;;;9.27;8.37;;;23.20;68.40;;;;;;4985832;28;20034;-58
2022/07/08 02:07:42;;;;;;;17.53;9.73;;;23.20;68.40;;;;;;4988897;28;20046;-55
2022/07/08 02:10:09;;;;;;;10.57;9.48;;;23.20;68.30;;;;;;4975178;28;20070;-57
2022/07/08 02:12:35;;;;;;;11.63;9.77;;;23.20;68.20;;;;;;4981375;28;20468;-58
2022/07/08 02:15:06;;;;;;;12.37;9.30;;;23.20;67.90;;;;;;4994114;28;20061;-59
2022/07/08 02:17:38;;;;;;;15.02;9.05;;;23.20;67.90;;;;;;4988453;28;20038;-58
2022/07/08 02:20:06;;;;;;;11.70;9.07;;;23.20;67.80;;;;;;4975803;28;20026;-57
2022/07/08 02:22:32;;;;;;;17.40;9.23;;;23.30;67.70;;;;;;4990380;28;20027;-58
2022/07/08 02:24:58;;;;;;;14.20;9.13;;;23.20;67.70;;;;;;4993951;28;20451;-58
2022/07/08 02:27:24;;;;;;;14.17;8.40;;;23.20;67.60;;;;;;4990281;28;20035;-58
2022/07/08 02:29:50;;;;;;;12.57;8.75;;;23.20;67.40;;;;;;4976658;28;20038;-57
2022/07/08 02:32:16;;;;;;;11.50;8.63;;;23.20;67.40;;;;;;4983584;28;20064;-59
2022/07/08 02:34:42;;;;;;;8.88;8.00;;;23.20;67.40;;;;;;4989625;28;20034;-58
2022/07/08 02:37:08;;;;;;;15.15;8.77;;;23.20;67.50;;;;;;4993298;28;20480;-60
2022/07/08 02:39:34;;;;;;;9.10;8.17;;;23.10;67.60;;;;;;4990141;28;20027;-59
2022/07/08 02:42:00;;;;;;;14.15;8.57;;;23.10;67.70;;;;;;4976999;28;20527;-59
2022/07/08 02:44:26;;;;;;;11.47;8.57;;;23.10;67.80;;;;;;4991824;28;20066;-57
2022/07/08 02:46:51;;;;;;;11.03;8.47;;;23.00;67.90;;;;;;4979495;28;20480;-59
2022/07/08 02:49:17;;;;;;;10.70;9.20;;;23.10;67.70;;;;;;4978357;28;20151;-54
2022/07/08 02:51:43;;;;;;;9.30;8.30;;;23.10;68.30;;;;;;4978450;28;20109;-60
2022/07/08 02:54:08;;;;;;;9.27;7.53;;;23.10;67.50;;;;;;4986765;28;20030;-57
2022/07/08 02:56:35;;;;;;;10.75;7.60;;;23.10;67.30;;;;;;4989641;28;20043;-59
2022/07/08 02:59:01;;;;;;;11.43;7.63;;;;;;;;;;4975895;28;20030;-58
2022/07/08 03:01:27;;;;;;;13.02;8.52;;;;;;;;;;4986547;28;20634;-56
2022/07/08 03:03:53;;;;;;;12.20;8.25;;;;;;;;;;4984345;28;20034;-54
2022/07/08 03:06:20;;;;;;;10.67;7.73;;;;;;;;;;4975449;28;20031;-57
2022/07/08 03:08:46;;;;;;;10.52;8.70;;;23.00;67.50;;;;;;4974725;28;20101;-54
2022/07/08 03:11:12;;;;;;;17.77;8.57;;;22.90;68.50;;;;;;4977017;28;20099;-54
2022/07/08 03:13:38;;;;;;;10.53;8.87;;;22.90;68.30;;;;;;4990454;28;20030;-53
2022/07/08 03:16:04;;;;;;;14.60;9.27;;;22.80;68.20;;;;;;4994026;28;20029;-58
2022/07/08 03:18:36;;;;;;;;;;;22.90;68.20;;;;;;4994313;28;20053;-54
2022/07/08 03:21:03;;;;;;;12.02;8.50;;;22.90;68.10;;;;;;4994205;28;19976;-58
2022/07/08 03:23:30;;;;;;;10.43;7.93;;;22.90;67.60;;;;;;4992885;28;20604;-55
2022/07/08 03:25:55;;;;;;;11.38;10.27;;;23.00;67.80;;;;;;4994181;28;20045;-59
2022/07/08 03:28:21;;;;;;;10.23;8.07;;;23.00;67.70;;;;;;4982514;28;20062;-58
2022/07/08 03:30:47;;;;;;;12.67;8.77;;;23.00;67.70;;;;;;4988661;28;20369;-55
2022/07/08 03:33:12;;;;;;;9.03;7.97;;;23.00;67.60;;;;;;4994014;28;20026;-55
2022/07/08 03:35:38;;;;;;;15.48;9.77;;;23.00;67.70;;;;;;4993969;28;20447;-58
2022/07/08 03:38:04;;;;;;;14.23;8.43;;;23.00;67.60;;;;;;4993869;28;20030;-57
2022/07/08 03:43:14;;;;;;;10.90;8.90;;;22.90;67.90;;;;;;4989568;28;20077;-57
2022/07/08 03:45:40;;;;;;;10.93;8.63;;;22.90;68.10;;;;;;4984602;28;20058;-56
2022/07/08 03:48:05;;;;;;;11.37;8.10;;;22.90;67.70;;;;;;4974363;28;20458;-58
2022/07/08 03:50:31;;;;;;;12.60;8.15;;;22.90;67.60;;;;;;4980826;28;20545;-57
2022/07/08 03:52:57;;;;;;;11.07;7.60;;;22.90;67.50;;;;;;4990207;28;20042;-56
2022/07/08 03:55:24;;;;;;;13.40;8.45;;;22.90;67.40;;;;;;4973380;28;20035;-54
2022/07/08 03:57:51;;;;;;;8.65;7.43;;;22.90;67.70;;;;;;4972319;28;20440;-57
2022/07/08 04:00:19;;;;;;;12.82;7.45;;;23.00;67.60;;;;;;4970943;28;20030;-55
2022/07/08 04:02:45;;;;;;;10.70;6.97;;;23.00;67.60;;;;;;4983822;28;20019;-54
2022/07/08 04:05:12;;;;;;;12.23;7.18;;;23.00;67.30;;;;;;4993218;28;20030;-56
2022/07/08 04:07:38;;;;;;;;;;;23.10;67.10;;;;;;4993615;28;20022;-57
2022/07/08 04:10:04;;;;;;;10.20;6.85;;;23.00;67.00;;;;;;4992535;28;20378;-58
2022/07/08 04:12:30;;;;;;;13.07;7.27;;;23.00;67.10;;;;;;4993121;28;20027;-58
2022/07/08 04:14:56;;;;;;;9.23;7.93;;;23.00;66.90;;;;;;4990590;28;20034;-55
2022/07/08 04:17:21;;;;;;;8.27;7.23;;;23.10;66.90;;;;;;4993183;28;20262;-54
2022/07/08 04:19:47;;;;;;;11.93;7.77;;;23.10;66.90;;;;;;4992878;28;20026;-54
2022/07/08 04:22:13;;;;;;;9.82;6.97;;;23.20;66.80;;;;;;4993123;28;20033;-52
2022/07/08 04:24:38;;;;;;;16.20;6.88;;;23.10;66.80;;;;;;4993155;28;20030;-58
2022/07/08 04:27:04;;;;;;;13.48;7.07;;;23.20;66.90;;;;;;4993042;28;20400;-59
2022/07/08 04:29:30;;;;;;;14.73;8.70;;;23.20;66.60;;;;;;4992898;28;20479;-57
2022/07/08 04:31:55;;;;;;;15.02;7.47;;;23.20;66.70;;;;;;4992999;28;20027;-53
2022/07/08 04:34:21;;;;;;;9.87;7.73;;;23.20;66.70;;;;;;4991396;28;20026;-55
2022/07/08 04:36:47;;;;;;;12.13;7.67;;;23.10;66.80;;;;;;4992887;28;20022;-56
2022/07/08 04:39:12;;;;;;;12.80;6.87;;;23.10;67.20;;;;;;4992458;28;20026;-55
2022/07/08 04:41:38;;;;;;;14.40;6.57;;;23.00;68.10;;;;;;4992843;28;20022;-58
2022/07/08 04:44:04;;;;;;;12.77;7.00;;;22.90;67.90;;;;;;4992957;28;20030;-57
2022/07/08 04:46:30;;;;;;;11.30;7.20;;;22.90;68.10;;;;;;5004364;28;20050;-59
2022/07/08 04:48:56;;;;;;;14.57;7.50;;;22.90;68.30;;;;;;5012239;28;20486;-60
2022/07/08 04:51:23;;;;;;;11.20;7.53;;;22.90;68.60;;;;;;5012270;28;20400;-58
2022/07/08 04:53:49;;;;;;;13.98;8.18;;;22.90;69.00;;;;;;4996870;28;20073;-62
2022/07/08 04:56:14;;;;;;;14.52;8.63;;;22.80;69.90;;;;;;4992690;28;20042;-59
2022/07/08 04:58:40;;;;;;;9.03;8.03;;;22.80;70.20;;;;;;4992786;28;20558;-61
2022/07/08 05:01:06;;;;;;;12.00;8.65;;;22.80;70.00;;;;;;4992638;28;20395;-61
2022/07/08 05:03:32;;;;;;;14.47;7.97;;;22.80;69.90;;;;;;4992449;28;20033;-61
2022/07/08 05:05:57;;;;;;;16.67;8.40;;;22.90;70.00;;;;;;5002528;28;20034;-58
2022/07/08 05:08:23;;;;;;;12.63;8.60;;;22.90;69.50;;;;;;5011971;28;20026;-60
2022/07/08 05:10:49;;;;;;;11.90;8.40;;;22.90;69.10;;;;;;5012070;28;20026;-60
2022/07/08 05:13:14;;;;;;;15.10;8.87;;;23.00;69.20;;;;;;5012185;28;20038;-58
2022/07/08 05:15:40;;;;;;;13.48;8.80;;;23.00;69.20;;;;;;5011994;28;20391;-60
2022/07/08 05:18:06;;;;;;;13.33;10.17;;;23.00;69.40;;;;;;5011850;28;20026;-58
2022/07/08 05:20:32;;;;;;;13.77;9.60;;;23.00;69.50;;;;;;5012023;28;20032;-60
2022/07/08 05:22:58;;;;;;;11.68;10.50;;;23.10;69.80;;;;;;5012003;28;20022;-58
2022/07/08 05:25:24;;;;;;;10.37;9.30;;;23.00;69.90;;;;;;5015683;28;20037;-61
2022/07/08 05:27:49;;;;;;;10.83;8.40;;;23.10;70.10;;;;;;5015957;28;20038;-60
2022/07/08 05:30:15;;;;;;;11.98;9.25;;;23.10;70.00;;;;;;5015867;28;20053;-58
2022/07/08 05:32:41;;;;;;;11.77;9.13;;;23.10;69.90;;;;;;5015824;28;20467;-58
2022/07/08 05:35:07;;;;;;;11.05;9.32;;;23.10;70.00;;;;;;5015854;28;20112;-60
2022/07/08 05:37:37;;;;;;;12.35;9.45;;;23.10;70.00;;;;;;5010197;28;20022;-59
2022/07/08 05:40:07;;;;;;;11.60;9.13;;;23.10;69.90;;;;;;4996344;28;20105;-58
2022/07/08 05:42:32;;;;;;;14.90;9.75;;;23.20;69.70;;;;;;4996127;28;20023;-60
2022/07/08 05:44:58;;;;;;;10.32;9.27;;;23.40;69.50;;;;;;4996055;28;20025;-60
2022/07/08 05:47:24;;;;;;;13.90;9.03;;;23.50;68.50;;;;;;4994683;28;20388;-61
2022/07/08 05:49:50;;;;;;;16.87;9.03;;;23.50;67.70;;;;;;4995863;28;20030;-60
2022/07/08 05:52:16;;;;;;;12.90;8.67;;;;;;;;;;4996008;28;20062;-56
2022/07/08 05:54:45;;;;;;;13.50;9.87;;;;;;;;;;4995901;28;20033;-57
2022/07/08 05:57:12;;;;;;;11.90;9.73;;;;;;;;;;4995669;28;20415;-57
2022/07/08 05:59:38;;;;;;;14.27;8.85;;;;;;;;;;4995578;28;20112;-58
2022/07/08 06:02:04;;;;;;;12.40;9.25;;;;;;;;;;4995630;28;20026;-60
2022/07/08 06:04:30;;;;;;;14.65;10.40;;;;;;;;;;4999235;28;20508;-59
2022/07/08 06:06:56;;;;;;;10.45;9.05;;;;;;;;;;5012202;28;20033;-60
2022/07/08 06:09:22;;;;;;;10.70;9.57;;;23.50;67.70;;;;;;5005896;28;20438;-60
2022/07/08 06:11:48;;;;;;;11.47;9.03;;;23.80;67.90;;;;;;5012916;28;20038;-60
2022/07/08 06:14:14;;;;;;;13.10;10.00;;;23.80;66.90;;;;;;5014992;28;20109;-60
2022/07/08 06:16:40;;;;;;;9.17;8.20;;;23.80;67.20;;;;;;5009111;28;20081;-57
2022/07/08 06:19:06;;;;;;;13.50;10.40;;;;;;;;;;4997478;28;20494;-57
2022/07/08 06:21:31;;;;;;;13.83;11.70;;;23.90;66.70;;;;;;4992272;28;20022;-58
2022/07/08 06:23:57;;;;;;;8.83;7.97;;;24.00;67.40;;;;;;5008994;28;20029;-59
2022/07/08 06:26:23;;;;;;;11.53;8.63;;;24.00;67.50;;;;;;5015002;28;20489;-58
2022/07/08 06:28:49;;;;;;;10.90;9.00;;;24.00;66.80;;;;;;5007483;28;20026;-56
2022/07/08 06:31:15;;;;;;;15.07;8.93;;;;;;;;;;5013221;28;20026;-59
2022/07/08 06:33:41;;;;;;;13.10;8.50;;;;;;;;;;5014818;28;20053;-60
2022/07/08 06:36:07;;;;;;;17.97;9.33;;;24.00;66.80;;;;;;5014810;28;20041;-58
2022/07/08 06:38:32;;;;;;;8.80;7.90;;;24.30;66.70;;;;;;5014524;28;20041;-59
2022/07/08 06:40:58;;;;;;;12.20;6.03;;;;;;;;;;5014645;28;20030;-58
2022/07/08 06:43:24;;;;;;;7.97;5.27;;;;;;;;;;5014621;28;20033;-58
2022/07/08 06:45:51;;;;;;;10.23;6.27;;;;;;;;;;5014556;28;20260;-57
2022/07/08 06:48:17;;;;;;;9.50;6.23;;;;;;;;;;5012271;28;20038;-57
2022/07/08 06:50:42;;;;;;;8.10;6.27;;;24.30;65.90;;;;;;4999884;28;20027;-59
2022/07/08 06:53:08;;;;;;;4.73;4.10;;;;;;;;;;5002435;28;20045;-58
2022/07/08 06:55:34;;;;;;;9.90;4.50;;;24.60;61.80;;;;;;4996000;28;20399;-58
2022/07/08 06:58:00;;;;;;;5.97;5.20;;;24.60;60.00;;;;;;4995578;28;20275;-58
2022/07/08 07:00:25;;;;;;;7.40;4.43;;;24.60;60.30;;;;;;4993199;28;20030;-59
2022/07/08 07:02:51;;;;;;;5.20;4.70;;;24.70;58.70;;;;;;5005375;28;20026;-59
2022/07/08 07:05:21;;;;;;;7.50;3.58;;;24.70;59.40;;;;;;5014273;28;20026;-58
2022/07/08 07:07:47;;;;;;;7.75;4.30;;;24.70;59.00;;;;;;5004701;28;20498;-57
2022/07/08 07:10:13;;;;;;;8.20;4.07;;;24.70;59.00;;;;;;5002054;28;20121;-57
2022/07/08 07:12:38;;;;;;;6.37;4.43;;;24.80;58.50;;;;;;5002314;28;20285;-59
2022/07/08 07:15:05;;;;;;;5.10;4.27;;;24.80;58.40;;;;;;5003093;28;20068;-58
2022/07/08 07:17:30;;;;;;;5.47;4.28;;;24.90;58.80;;;;;;4996855;28;20026;-57
2022/07/08 07:19:58;;;;;;;5.73;3.73;;;25.00;59.20;;;;;;4993158;28;20037;-57
2022/07/08 07:22:24;;;;;;;6.40;4.10;;;;;;;;;;4993034;28;20022;-60
2022/07/08 07:24:50;;;;;;;10.38;4.25;;;25.10;59.10;;;;;;5001000;28;20034;-57
2022/07/08 07:27:16;;;;;;;5.22;3.72;;;25.20;57.50;;;;;;5004294;28;20046;-56
2022/07/08 07:29:42;;;;;;;5.70;3.53;;;;;;;;;;5001008;28;20494;-55
2022/07/08 07:32:08;;;;;;;8.27;3.87;;;25.30;57.40;;;;;;4994214;28;20030;-60
2022/07/08 07:34:34;;;;;;;4.77;3.93;;;25.30;57.10;;;;;;4994227;28;20060;-59
2022/07/08 07:36:59;;;;;;;5.03;3.27;;;25.30;57.80;;;;;;4992771;28;20033;-60
2022/07/08 07:39:25;;;;;;;10.00;4.17;;;;;;;;;;4993858;28;20575;-57
2022/07/08 07:41:51;;;;;;;9.53;3.50;;;;;;;;;;4993788;28;20058;-56
2022/07/08 07:44:17;;;;;;;7.93;3.07;;;25.40;57.90;;;;;;4992519;28;20262;-58
2022/07/08 07:46:43;;;;;;;5.07;3.23;;;;;;;;;;4993503;28;20030;-56
2022/07/08 07:49:09;;;;;;;7.45;3.38;;;25.60;57.30;;;;;;4992294;28;20076;-57
2022/07/08 07:51:35;;;;;;;6.33;3.53;;;;;;;;;;4993730;28;20034;-58
2022/07/08 07:54:01;;;;;;;5.28;3.13;;;;;;;;;;4999628;28;20026;-58
2022/07/08 07:56:27;;;;;;;15.93;3.17;;;25.80;56.70;;;;;;5002697;28;20486;-59
2022/07/08 07:58:52;;;;;;;6.23;3.03;;;25.90;57.20;;;;;;4998377;28;20261;-58
2022/07/08 08:01:18;;;;;;;8.10;2.63;;;26.00;56.90;;;;;;4993742;28;20033;-59
2022/07/08 08:03:44;;;;;;;6.40;2.13;;;26.00;56.10;;;;;;4992110;28;20111;-58
2022/07/08 08:06:09;;;;;;;4.53;2.43;;;26.00;56.00;;;;;;4993466;28;20027;-56
2022/07/08 08:08:35;;;;;;;5.00;2.40;;;26.10;56.00;;;;;;4991885;28;20446;-55
2022/07/08 08:11:02;;;;;;;3.67;2.50;;;26.10;56.40;;;;;;4993190;28;20032;-56
2022/07/08 08:13:29;;;;;;;9.05;2.40;;;26.30;55.80;;;;;;4991996;28;20038;-60
2022/07/08 08:15:55;;;;;;;4.45;2.92;;;26.30;55.60;;;;;;4993096;28;20026;-59
2022/07/08 08:18:21;;;;;;;3.00;2.33;;;;;;;;;;4991966;28;20014;-59
2022/07/08 08:20:47;;;;;;;6.00;3.08;;;26.30;55.70;;;;;;4992927;28;20045;-58
2022/07/08 08:23:13;;;;;;;7.47;3.20;;;26.50;54.30;;;;;;4993224;28;20023;-58
2022/07/08 08:25:39;;;;;;;4.30;2.50;;;26.40;54.40;;;;;;4993135;28;20460;-59
2022/07/08 08:28:05;;;;;;;5.32;2.60;;;26.40;55.30;;;;;;4991971;28;20460;-57
2022/07/08 08:30:31;;;;;;;6.33;3.10;;;26.40;55.40;;;;;;4992996;28;20058;-59
2022/07/08 08:32:56;;;;;;;6.70;2.57;;;26.40;55.10;;;;;;4991883;28;20499;-58
2022/07/08 08:35:22;;;;;;;4.87;2.90;;;26.40;54.90;;;;;;4993026;28;20539;-58
2022/07/08 08:37:48;;;;;;;6.33;2.20;;;26.40;55.50;;;;;;4992782;28;20077;-56
2022/07/08 08:40:14;;;;;;;3.27;2.23;;;26.50;55.30;;;;;;4992501;28;20030;-61
2022/07/08 08:42:41;;;;;;;24.30;3.63;;;;;;;;;;4992566;28;20101;-57
2022/07/08 08:45:08;;;;;;;8.80;2.78;;;;;;;;;;4992679;28;20057;-56
2022/07/08 08:47:36;;;;;;;4.00;2.80;;;;;;;;;;4991790;28;20027;-53
2022/07/08 08:52:54;;;;;;;4.28;3.13;;;;;;;;;;4973427;28;20043;-55
2022/07/08 08:55:27;;;;;;;8.70;2.90;;;;;;;;;;4992416;28;20411;-56
2022/07/08 08:57:57;;;;;;;4.43;2.75;;;;;;;;;;4990587;28;20053;-58
2022/07/08 09:00:25;;;;;;;8.40;2.97;;;;;;;;;;4992139;28;20080;-56
2022/07/08 09:02:51;;;;;;;4.85;3.00;;;;;;;;;;4990848;28;20033;-56
2022/07/08 09:05:17;;;;;;;9.05;3.50;;;;;;;;;;4990956;28;20030;-57
2022/07/08 09:07:44;;;;;;;8.52;3.50;;;;;;;;;;4991042;28;20031;-54
2022/07/08 09:10:11;;;;;;;4.35;2.65;;;;;;;;;;4992446;28;20022;-56
2022/07/08 09:12:37;;;;;;;7.10;3.75;;;;;;;;;;4992054;28;20034;-59
2022/07/08 09:15:04;;;;;;;7.40;2.60;;;;;;;;;;4992306;28;20026;-59
2022/07/08 09:17:30;;;;;;;10.23;3.13;;;;;;;;;;4994415;28;20026;-60
2022/07/08 09:19:56;;;;;;;4.05;2.53;;;;;;;;;;4999451;28;20037;-58
2022/07/08 09:22:25;;;;;;;5.22;3.10;;;;;;;;;;4992188;28;20022;-56
2022/07/08 09:24:51;;;;;;;6.50;2.33;;;;;;;;;;4992387;28;20030;-54
2022/07/08 09:27:18;;;;;;;6.78;3.22;;;;;;;;;;4992136;28;20041;-57
2022/07/08 09:30:00;;;;;;;3.92;2.45;;;;;;;;;;5002106;28;20089;-56
2022/07/08 09:32:26;;;;;;;3.88;2.15;;;;;;;;;;5001295;28;20046;-56
2022/07/08 09:34:52;;;;;;;5.47;2.42;;;;;;;;;;4994418;28;20107;-58
2022/07/08 09:37:19;;;;;;;6.95;2.15;;;;;;;;;;4994677;28;20109;-60
2022/07/08 09:39:45;;;;;;;;;;;;;;;;;;4998620;28;20015;-58
2022/07/08 09:42:13;;;;;;;5.15;1.92;;;;;;;;;;5011708;28;19992;-57
2022/07/08 09:44:40;;;;;;;5.72;1.50;;;;;;;;;;5011407;28;20104;-55
2022/07/08 09:47:11;;;;;;;3.53;1.08;;;;;;;;;;5011093;28;20018;-56
2022/07/08 09:49:39;;;;;;;4.25;1.45;;;;;;;;;;5004334;28;20410;-56
2022/07/08 09:52:05;;;;;;;5.22;1.10;;;;;;;;;;4994454;28;20030;-57
2022/07/08 09:54:32;;;;;;;3.03;1.08;;;;;;;;;;4991805;28;20041;-56
2022/07/08 09:57:03;;;;;;;3.33;1.35;;;;;;;;;;4991532;28;20030;-59
2022/07/08 09:59:30;;;;;;;4.75;2.65;;;;;;;;;;4991947;28;20162;-56
2022/07/08 10:01:56;;;;;;;20.90;10.13;;;;;;;;;;4991922;28;20388;-55
2022/07/08 10:04:24;;;;;;;1.90;1.45;;;;;;;;;;4993037;28;20129;-59
2022/07/08 10:06:50;;;;;;;3.63;1.00;;;;;;;;;;5000797;28;20033;-57
2022/07/08 10:09:17;;;;;;;1.45;1.05;;;;;;;;;;4994377;28;20039;-58
2022/07/08 10:11:43;;;;;;;1.98;1.00;;;;;;;;;;4995518;28;20395;-54
2022/07/08 10:14:09;;;;;;;4.30;1.00;;;;;;;;;;4995517;28;20038;-55
2022/07/08 10:16:35;;;;;;;4.28;1.50;;;;;;;;;;4995572;28;20105;-53
2022/07/08 10:19:03;;;;;;;1.25;0.80;;;;;;;;;;4995315;28;20038;-55
2022/07/08 10:21:29;;;;;;;2.75;1.23;;;;;;;;;;5004024;28;20021;-54
2022/07/08 10:23:56;;;;;;;1.67;1.00;;;;;;;;;;4992501;28;20102;-55
2022/07/08 10:26:28;;;;;;;6.30;1.60;;;;;;;;;;4989302;28;20476;-54
2022/07/08 10:29:11;;;;;;;3.05;1.70;;;;;;;;;;4983483;28;20476;-54
2022/07/08 10:31:53;;;;;;;3.42;1.55;;;;;;;;;;4976707;28;20159;-57
2022/07/08 10:34:35;;;;;;;2.25;1.58;;;;;;;;;;4985025;28;20043;-57
2022/07/08 10:37:02;;;;;;;3.60;1.25;;;;;;;;;;5000078;28;20503;-57
2022/07/08 10:39:37;;;;;;;1.58;1.27;;;;;;;;;;5000922;28;20106;-55
2022/07/08 10:42:03;;;;;;;3.55;1.50;;;;;;;;;;4994600;28;20049;-54
2022/07/08 10:44:44;;;;;;;3.65;1.25;;;;;;;;;;4978943;28;20445;-53
2022/07/08 10:47:14;;;;;;;4.18;1.73;;;;;;;;;;4988076;28;20017;-54
2022/07/08 10:49:41;;;;;;;1.95;1.40;;;;;;;;;;5007822;28;20121;-55
2022/07/08 10:52:07;;;;;;;3.13;1.55;;;;;;;;;;4981376;28;20404;-56
2022/07/08 10:54:37;;;;;;;5.32;1.55;;;;;;;;;;4994683;28;20495;-57
2022/07/08 10:57:10;;;;;;;5.25;1.65;;;;;;;;;;4992817;28;20026;-56
2022/07/08 10:59:37;;;;;;;2.08;1.60;;;;;;;;;;5032867;22;20050;-56
2022/07/08 11:02:03;;;;;;;;;;;;;;;;;;5013069;28;20044;-55
2022/07/08 11:04:43;;;;;;;4.00;1.42;;;;;;;;;;5013518;28;19905;-55
2022/07/08 11:07:22;;;;;;;2.67;1.00;;;;;;;;;;5013509;28;20026;-54
2022/07/08 11:09:52;;;;;;;1.90;1.13;;;;;;;;;;5013921;28;20029;-54
2022/07/08 11:12:20;;;;;;;2.58;1.10;;;;;;;;;;5005181;28;20037;-56
2022/07/08 11:14:50;;;;;;;0.80;0.77;;;;;;;;;;4994376;28;20030;-56
2022/07/08 11:17:20;;;;;;;3.28;1.00;;;;;;;;;;4988387;28;20029;-55
2022/07/08 11:19:46;;;;;;;4.10;0.90;;;;;;;;;;4986542;28;20030;-53
2022/07/08 11:22:13;;;;;;;1.30;0.82;;;;;;;;;;4993412;28;20026;-54
2022/07/08 11:24:43;;;;;;;2.45;1.30;;;;;;;;;;4994047;28;20054;-53
2022/07/08 11:27:09;;;;;;;2.00;0.77;;;;;;;;;;4987478;28;20038;-57
2022/07/08 11:29:35;;;;;;;1.25;0.80;;;;;;;;;;4993663;28;20038;-53
2022/07/08 11:32:04;;;;;;;1.25;0.85;;;;;;;;;;4992149;28;20037;-54
2022/07/08 11:34:30;;;;;;;4.00;1.05;;;;;;;;;;4990840;28;20053;-54
2022/07/08 11:37:03;;;;;;;5.05;0.90;;;;;;;;;;4994134;28;20039;-56
2022/07/08 11:39:29;;;;;;;3.35;1.10;;;;;;;;;;4991757;28;20037;-55
2022/07/08 11:41:55;;;;;;;2.38;1.02;;;;;;;;;;4982808;28;20031;-55
2022/07/08 11:44:22;;;;;;;0.70;0.70;;;;;;;;;;4977545;28;20523;-55
2022/07/08 11:46:52;;;;;;;1.42;1.10;;;;;;;;;;4994004;28;20026;-55
2022/07/08 11:49:18;;;;;;;1.48;1.08;;;;;;;;;;4992187;28;20062;-56
2022/07/08 11:51:45;;;;;;;1.45;1.27;;;;;;;;;;4983274;28;20030;-55
2022/07/08 11:54:11;;;;;;;1.67;0.98;;;;;;;;;;4991745;28;20026;-55
2022/07/08 11:56:37;;;;;;;4.45;1.30;;;;;;;;;;4973078;28;20506;-53
2022/07/08 11:59:03;;;;;;;2.92;1.20;;;;;;;;;;4973839;28;20065;-53
2022/07/08 12:01:30;;;;;;;1.67;0.90;;;;;;;;;;4976578;28;20019;-54
2022/07/08 12:03:57;;;;;;;4.70;1.20;;;;;;;;;;4990794;28;20030;-55
2022/07/08 12:06:24;;;;;;;2.17;0.68;;;;;;;;;;4993462;28;20026;-58
2022/07/08 12:08:50;;;;;;;;;;;;;;;;;;4993622;28;20030;-54
2022/07/08 12:11:19;;;;;;;3.80;1.05;;;;;;;;;;5000362;28;19963;-54
2022/07/08 12:13:47;;;;;;;2.90;1.63;;;26.60;56.50;;;;;;5000835;28;20026;-56
2022/07/08 12:16:29;;;;;;;3.80;1.15;;;31.70;36.20;;;;;;4993626;28;20152;-54
2022/07/08 12:18:55;;;;;;;1.42;0.90;;;31.70;34.90;;;;;;4979556;28;20061;-57
2022/07/08 12:21:21;;;;;;;2.03;1.10;;;31.70;34.00;;;;;;4976726;28;20058;-54
2022/07/08 12:23:56;;;;;;;;;;;31.80;33.70;;;;;;4982374;28;20026;-56
2022/07/08 12:26:22;;;;;;;1.77;0.80;;;31.70;33.20;;;;;;4983681;28;19956;-55
2022/07/08 12:28:48;;;;;;;1.05;0.70;;;31.80;32.70;;;;;;4983747;28;20117;-56
2022/07/08 12:31:38;;;;;;;1.37;1.00;;;31.90;33.10;;;;;;4993029;28;20150;-54
2022/07/08 12:34:05;;;;;;;1.23;0.90;;;;;;;;;;4989824;28;20037;-56
2022/07/08 12:36:32;;;;;;;1.95;0.95;;;32.10;32.20;;;;;;4976849;28;20030;-56
2022/07/08 12:39:10;;;;;;;9.65;1.10;;;32.30;31.50;;;;;;4973326;28;20030;-54
2022/07/08 12:41:35;;;;;;;;;;;32.60;32.10;;;;;;4973907;28;20101;-53
2022/07/08 12:44:32;;;;;;;0.73;0.73;;;32.50;32.60;;;;;;4976258;28;20370;-56
2022/07/08 12:46:58;;;;;;;1.40;0.93;;;32.60;32.20;;;;;;4963345;28;20046;-57
2022/07/08 12:49:25;;;;;;;0.75;0.60;;;;;;;;;;4987749;28;20026;-56
2022/07/08 12:51:51;;;;;;;0.60;0.60;;;32.60;31.00;;;;;;4992652;28;20026;-54
2022/07/08 12:54:17;;;;;;;1.67;0.80;;;32.70;31.50;;;;;;4987614;28;20391;-54
2022/07/08 12:56:43;;;;;;;2.17;0.90;;;32.70;31.30;;;;;;4988263;28;20019;-55
2022/07/08 12:59:09;;;;;;;1.90;0.70;;;32.70;31.30;;;;;;4992354;28;20081;-54
2022/07/08 13:01:35;;;;;;;1.73;0.90;;;32.80;30.50;;;;;;4976595;28;20065;-53
2022/07/08 13:04:01;;;;;;;;;;;32.80;31.20;;;;;;4972655;28;20073;-56
2022/07/08 13:06:27;;;;;;;2.65;1.20;;;32.80;32.20;;;;;;4977764;28;19949;-55
2022/07/08 13:08:53;;;;;;;0.70;0.70;;;32.90;31.50;;;;;;4992311;28;20034;-54
2022/07/08 13:11:18;;;;;;;1.07;1.07;;;33.00;32.30;;;;;;4979072;28;20274;-54
2022/07/08 13:13:44;;;;;;;1.20;1.10;;;33.10;33.10;;;;;;4973104;28;20027;-54
2022/07/08 13:16:10;;;;;;;0.97;0.90;;;33.20;32.30;;;;;;4976398;28;20035;-56
2022/07/08 13:18:35;;;;;;;0.73;0.73;;;33.30;31.70;;;;;;4973284;28;20269;-54
2022/07/08 13:21:01;;;;;;;0.73;0.73;;;;;;;;;;4983535;28;20698;-55
2022/07/08 13:23:28;;;;;;;3.20;0.90;;;;;;;;;;4990924;28;20258;-55
2022/07/08 13:25:54;;;;;;;5.00;1.15;;;;;;;;;;4989322;28;20499;-54
2022/07/08 13:28:20;;;;;;;0.75;0.65;;;;;;;;;;4990760;28;20034;-54